Time;durP1;ratioP1;P1;durP2;ratioP2;P2;SDS_P1;SDS_P2;PMS_P1;PMS_P2;Temp;Humidity;BMP_temperature;BMP_pressure;BME280_temperature;BME280_humidity;BME280_pressure;Samples;Min_cycle;Max_cycle;Signal;HPM_P1;HPM_P2
2023/05/26 00:00:37;;;;;;;1.98;1.50;;;21.90;75.30;;;;;;5001104;28;21004;-49
2023/05/26 00:03:04;;;;;;;2.28;1.88;;;21.80;75.20;;;;;;4998256;28;20283;-50
2023/05/26 00:05:31;;;;;;;2.60;2.15;;;21.80;75.20;;;;;;5000344;28;20228;-47
2023/05/26 00:07:59;;;;;;;3.50;1.75;;;21.80;75.10;;;;;;5005306;28;20201;-47
2023/05/26 00:10:25;;;;;;;3.67;2.00;;;21.90;75.30;;;;;;5006638;28;20627;-47
2023/05/26 00:12:52;;;;;;;2.50;1.83;;;21.80;75.20;;;;;;5003412;28;20319;-47
2023/05/26 00:15:19;;;;;;;1.70;1.40;;;21.80;75.30;;;;;;5007645;28;20460;-47
2023/05/26 00:17:47;;;;;;;2.30;2.10;;;21.80;75.20;;;;;;5006055;28;20459;-47
2023/05/26 00:20:13;;;;;;;1.80;1.30;;;21.80;75.30;;;;;;5005090;28;20452;-48
2023/05/26 00:22:41;;;;;;;2.00;1.45;;;21.80;75.20;;;;;;5009115;28;21011;-47
2023/05/26 00:25:09;;;;;;;2.07;1.67;;;21.80;75.30;;;;;;5007972;28;20224;-49
2023/05/26 00:27:36;;;;;;;4.03;1.58;;;21.80;75.20;;;;;;5006304;28;20470;-48
2023/05/26 00:30:03;;;;;;;3.73;1.80;;;21.90;75.30;;;;;;5002939;28;20251;-49
2023/05/26 00:32:30;;;;;;;2.55;1.65;;;21.80;75.30;;;;;;5001387;28;20976;-49
2023/05/26 00:34:56;;;;;;;1.80;1.57;;;21.80;75.30;;;;;;5004395;28;20519;-47
2023/05/26 00:37:23;;;;;;;2.53;1.50;;;21.80;75.30;;;;;;5008539;28;20464;-47
2023/05/26 00:39:50;;;;;;;2.22;1.45;;;21.70;75.30;;;;;;5006847;28;20882;-47
2023/05/26 00:42:18;;;;;;;1.93;1.43;;;21.80;75.40;;;;;;5006510;28;20271;-47
2023/05/26 00:44:44;;;;;;;6.20;1.33;;;21.70;75.30;;;;;;4999195;28;20639;-47
2023/05/26 00:47:11;;;;;;;2.13;1.80;;;21.70;75.30;;;;;;5005570;28;21025;-50
2023/05/26 00:49:38;;;;;;;1.63;1.53;;;21.70;75.40;;;;;;5002181;28;20452;-46
2023/05/26 00:52:06;;;;;;;2.53;1.70;;;21.70;75.30;;;;;;5004145;28;20452;-50
2023/05/26 00:54:32;;;;;;;2.60;1.30;;;21.70;75.30;;;;;;5004108;28;20522;-48
2023/05/26 00:57:00;;;;;;;4.03;2.00;;;21.70;75.40;;;;;;5008501;28;20208;-49
2023/05/26 00:59:29;;;;;;;1.57;1.33;;;21.70;75.40;;;;;;5007416;28;20216;-50
2023/05/26 01:01:56;;;;;;;2.50;1.93;;;21.70;75.40;;;;;;5006965;28;20459;-49
2023/05/26 01:04:23;;;;;;;2.78;1.83;;;21.70;75.40;;;;;;5002154;28;20452;-50
2023/05/26 01:06:50;;;;;;;1.92;1.60;;;21.70;75.40;;;;;;5008748;28;20577;-49
2023/05/26 01:09:17;;;;;;;2.50;1.57;;;21.70;75.40;;;;;;5008944;28;20518;-50
2023/05/26 01:11:48;;;;;;;2.42;1.30;;;21.70;75.40;;;;;;5001429;28;20759;-50
2023/05/26 01:14:21;;;;;;;3.20;1.83;;;21.70;75.40;;;;;;5004896;28;20228;-48
2023/05/26 01:16:54;;;;;;;3.00;1.85;;;21.70;75.40;;;;;;5007189;28;20541;-49
2023/05/26 01:19:46;;;;;;;2.20;1.50;;;21.70;75.40;;;;;;5004505;28;20201;-49
2023/05/26 01:22:30;;;;;;;1.90;1.45;;;21.70;75.50;;;;;;5002123;28;20201;-48
2023/05/26 01:25:14;;;;;;;1.93;1.10;;;21.70;75.50;;;;;;5005326;28;20260;-51
2023/05/26 01:27:49;;;;;;;2.90;1.73;;;21.60;75.40;;;;;;5007297;28;20487;-47
2023/05/26 01:30:17;;;;;;;2.15;1.58;;;21.60;75.40;;;;;;5005258;28;20678;-49
2023/05/26 01:32:47;;;;;;;1.58;1.35;;;21.60;76.20;;;;;;4999523;28;20593;-49
2023/05/26 01:35:15;;;;;;;4.38;1.50;;;21.60;75.40;;;;;;5002951;28;20228;-49
2023/05/26 01:37:42;;;;;;;1.70;1.38;;;21.60;75.40;;;;;;5006535;28;20425;-49
2023/05/26 01:40:11;;;;;;;2.67;1.77;;;21.60;75.40;;;;;;5008541;28;20675;-48
2023/05/26 01:42:42;;;;;;;1.85;1.30;;;21.60;75.40;;;;;;4994346;28;20197;-46
2023/05/26 01:45:13;;;;;;;1.83;1.20;;;21.60;75.50;;;;;;5007098;28;20204;-47
2023/05/26 01:47:43;;;;;;;2.00;1.40;;;21.50;75.40;;;;;;5004134;28;20473;-50
2023/05/26 01:50:12;;;;;;;1.60;1.30;;;21.60;75.50;;;;;;5002783;28;20452;-48
2023/05/26 01:52:43;;;;;;;3.05;1.60;;;21.60;75.50;;;;;;5008986;28;20193;-47
2023/05/26 01:55:12;;;;;;;1.70;1.60;;;21.60;75.60;;;;;;5007872;28;20193;-48
2023/05/26 01:57:41;;;;;;;3.50;1.90;;;21.60;75.60;;;;;;5008969;28;20884;-46
2023/05/26 02:00:10;;;;;;;1.90;1.30;;;21.50;75.50;;;;;;5000208;28;20464;-47
2023/05/26 02:02:36;;;;;;;1.80;1.50;;;21.50;75.50;;;;;;5005773;28;20289;-47
2023/05/26 02:05:06;;;;;;;2.25;1.63;;;21.50;75.50;;;;;;5005526;28;20254;-49
2023/05/26 02:07:34;;;;;;;1.50;1.35;;;21.50;75.50;;;;;;5004515;28;20192;-47
2023/05/26 02:10:01;;;;;;;1.70;1.35;;;21.50;75.60;;;;;;5008874;28;20656;-49
2023/05/26 02:12:28;;;;;;;4.03;3.63;;;21.40;75.40;;;;;;5007813;28;20200;-51
2023/05/26 02:14:54;;;;;;;2.53;1.40;;;21.50;75.60;;;;;;5004210;28;20468;-51
2023/05/26 02:17:21;;;;;;;2.03;1.50;;;21.50;75.70;;;;;;5006188;28;20723;-47
2023/05/26 02:19:48;;;;;;;2.22;1.65;;;21.50;75.70;;;;;;5005245;28;21017;-46
2023/05/26 02:22:16;;;;;;;2.65;2.03;;;21.50;75.70;;;;;;5007851;28;20288;-49
2023/05/26 02:24:43;;;;;;;1.30;1.20;;;21.50;75.70;;;;;;5005464;28;20271;-48
2023/05/26 02:27:10;;;;;;;1.40;1.30;;;21.50;75.80;;;;;;5007989;28;20229;-46
2023/05/26 02:29:36;;;;;;;1.77;1.30;;;21.50;75.80;;;;;;5005447;28;20216;-48
2023/05/26 02:32:03;;;;;;;3.20;1.55;;;21.50;75.70;;;;;;5006322;28;20251;-48
2023/05/26 02:34:30;;;;;;;2.25;2.05;;;21.40;75.60;;;;;;5002721;28;20201;-49
2023/05/26 02:36:57;;;;;;;1.85;1.27;;;21.50;75.70;;;;;;5007127;28;20235;-47
2023/05/26 02:39:25;;;;;;;1.45;1.20;;;21.50;75.80;;;;;;5008145;28;20242;-47
2023/05/26 02:41:52;;;;;;;2.20;1.30;;;21.40;75.60;;;;;;5008196;28;20197;-49
2023/05/26 02:44:19;;;;;;;1.70;1.48;;;21.40;75.60;;;;;;5006221;28;20197;-49
2023/05/26 02:46:46;;;;;;;2.25;1.30;;;21.40;75.70;;;;;;5007221;28;20227;-49
2023/05/26 02:49:12;;;;;;;2.05;1.42;;;21.40;75.70;;;;;;5004194;28;20612;-48
2023/05/26 02:51:39;;;;;;;2.40;1.45;;;21.40;75.60;;;;;;5008448;28;20200;-50
2023/05/26 02:54:06;;;;;;;2.15;1.50;;;21.40;75.70;;;;;;5009939;28;20200;-49
2023/05/26 02:56:34;;;;;;;1.40;1.30;;;21.40;75.70;;;;;;5012393;28;20193;-50
2023/05/26 02:59:00;;;;;;;1.67;1.48;;;21.40;75.70;;;;;;5006817;28;20288;-50
2023/05/26 03:01:27;;;;;;;2.00;1.35;;;21.40;75.70;;;;;;5011479;28;20201;-49
2023/05/26 03:03:54;;;;;;;2.38;1.75;;;21.40;75.80;;;;;;5007937;28;20681;-48
2023/05/26 03:06:22;;;;;;;2.05;1.40;;;21.40;75.80;;;;;;5010615;28;20221;-49
2023/05/26 03:08:49;;;;;;;1.52;1.42;;;21.40;75.80;;;;;;5012212;28;20201;-49
2023/05/26 03:11:15;;;;;;;2.13;1.48;;;21.40;75.80;;;;;;5012074;28;20661;-49
2023/05/26 03:13:43;;;;;;;1.50;1.40;;;21.40;75.80;;;;;;5009557;28;20204;-49
2023/05/26 03:16:11;;;;;;;1.83;1.58;;;21.40;75.80;;;;;;5009706;28;20201;-49
2023/05/26 03:18:38;;;;;;;1.50;1.30;;;21.40;75.80;;;;;;5009805;28;20196;-50
2023/05/26 03:21:06;;;;;;;2.00;1.65;;;21.40;75.80;;;;;;5011231;28;20196;-49
2023/05/26 03:23:33;;;;;;;1.75;1.40;;;21.40;75.80;;;;;;5006029;28;20308;-49
2023/05/26 03:26:00;;;;;;;2.28;1.20;;;21.40;75.70;;;;;;5010947;28;20696;-50
2023/05/26 03:28:27;;;;;;;1.80;1.50;;;21.30;75.80;;;;;;5011493;28;20233;-47
2023/05/26 03:30:56;;;;;;;2.53;1.30;;;21.30;75.80;;;;;;5009514;28;20219;-48
2023/05/26 03:33:22;;;;;;;1.80;1.70;;;21.30;75.70;;;;;;5009966;28;20189;-49
2023/05/26 03:35:50;;;;;;;1.95;1.48;;;21.30;75.80;;;;;;5009330;28;20224;-49
2023/05/26 03:38:17;;;;;;;1.85;1.10;;;21.30;75.80;;;;;;5011290;28;20215;-50
2023/05/26 03:40:44;;;;;;;1.30;1.10;;;21.30;75.80;;;;;;5011958;28;20324;-48
2023/05/26 03:43:10;;;;;;;2.10;1.67;;;21.30;75.80;;;;;;5009332;28;20624;-47
2023/05/26 03:45:37;;;;;;;1.92;1.40;;;21.30;75.80;;;;;;5006893;28;20197;-49
2023/05/26 03:48:08;;;;;;;1.30;1.20;;;21.30;75.80;;;;;;5009981;28;20267;-49
2023/05/26 03:50:35;;;;;;;3.42;2.13;;;21.30;75.90;;;;;;5011034;28;20204;-49
2023/05/26 03:53:02;;;;;;;2.40;1.60;;;21.30;75.90;;;;;;5010013;28;20200;-48
2023/05/26 03:55:29;;;;;;;1.70;1.30;;;21.30;75.90;;;;;;5010272;28;20193;-48
2023/05/26 03:57:55;;;;;;;1.38;1.20;;;21.30;76.00;;;;;;5007982;28;20192;-49
2023/05/26 04:00:22;;;;;;;1.90;1.20;;;21.20;75.80;;;;;;5009177;28;20197;-50
2023/05/26 04:02:49;;;;;;;1.30;1.10;;;21.30;76.00;;;;;;5007439;28;20193;-49
2023/05/26 04:05:18;;;;;;;1.25;1.13;;;21.20;75.90;;;;;;5006869;28;20195;-49
2023/05/26 04:07:46;;;;;;;1.58;1.30;;;21.20;75.90;;;;;;5007512;28;20229;-49
2023/05/26 04:10:12;;;;;;;1.98;1.40;;;21.30;76.00;;;;;;5010884;28;20271;-51
2023/05/26 04:12:39;;;;;;;1.30;1.13;;;21.20;75.90;;;;;;5007524;28;20288;-49
2023/05/26 04:15:08;;;;;;;1.10;1.00;;;21.20;75.90;;;;;;5002161;28;20208;-49
2023/05/26 04:17:35;;;;;;;1.80;1.20;;;21.20;75.90;;;;;;5009033;28;20200;-49
2023/05/26 04:20:02;;;;;;;1.38;1.02;;;21.10;75.90;;;;;;5006302;28;20252;-49
2023/05/26 04:22:30;;;;;;;1.52;1.15;;;21.20;76.00;;;;;;5006169;28;20632;-49
2023/05/26 04:24:56;;;;;;;1.60;1.30;;;21.20;75.90;;;;;;5009665;28;20216;-49
2023/05/26 04:27:24;;;;;;;1.85;1.33;;;21.20;76.00;;;;;;5011329;28;20475;-49
2023/05/26 04:29:52;;;;;;;1.58;1.48;;;21.30;76.00;;;;;;5005375;28;20280;-49
2023/05/26 04:32:20;;;;;;;2.40;1.20;;;21.20;75.90;;;;;;5008749;28;20655;-50
2023/05/26 04:34:46;;;;;;;1.77;1.40;;;21.20;76.00;;;;;;5008824;28;20192;-50
2023/05/26 04:37:14;;;;;;;1.95;1.33;;;21.10;76.00;;;;;;5006015;28;20201;-49
2023/05/26 04:39:42;;;;;;;1.98;1.42;;;21.20;76.00;;;;;;5004829;28;20975;-48
2023/05/26 04:42:09;;;;;;;1.70;1.10;;;21.10;75.90;;;;;;5008572;28;20201;-49
2023/05/26 04:44:37;;;;;;;1.85;1.50;;;21.10;75.90;;;;;;5008579;28;20467;-48
2023/05/26 04:47:08;;;;;;;1.92;1.23;;;21.20;76.10;;;;;;5008437;28;20632;-49
2023/05/26 04:49:35;;;;;;;2.00;1.35;;;21.10;76.00;;;;;;5008300;28;20228;-48
2023/05/26 04:52:02;;;;;;;1.40;1.10;;;21.10;76.00;;;;;;5009632;28;20193;-48
2023/05/26 04:54:29;;;;;;;1.60;1.20;;;21.10;75.90;;;;;;5008743;28;20196;-50
2023/05/26 04:56:57;;;;;;;1.52;1.25;;;21.10;76.00;;;;;;5010630;28;20205;-49
2023/05/26 04:59:24;;;;;;;1.30;1.20;;;21.10;76.00;;;;;;5006636;28;20197;-48
2023/05/26 05:01:51;;;;;;;1.50;1.20;;;21.10;76.00;;;;;;5003661;28;20197;-50
2023/05/26 05:04:18;;;;;;;1.35;1.15;;;21.20;76.20;;;;;;5006154;28;20692;-49
2023/05/26 05:06:45;;;;;;;1.67;1.33;;;21.20;76.20;;;;;;5008887;28;20216;-50
2023/05/26 05:09:11;;;;;;;1.90;1.45;;;21.10;76.00;;;;;;5004453;28;20630;-49
2023/05/26 05:11:38;;;;;;;1.67;1.17;;;21.10;76.00;;;;;;5000043;28;20205;-48
2023/05/26 05:14:06;;;;;;;1.35;1.17;;;21.00;75.90;;;;;;5002737;28;20259;-48
2023/05/26 05:16:33;;;;;;;1.55;1.23;;;21.10;76.10;;;;;;5007783;28;20197;-49
2023/05/26 05:19:00;;;;;;;1.40;1.23;;;21.10;76.20;;;;;;5009234;28;20208;-48
2023/05/26 05:21:27;;;;;;;2.25;1.30;;;21.10;76.20;;;;;;5005908;28;20675;-48
2023/05/26 05:23:54;;;;;;;1.73;1.23;;;21.00;76.20;;;;;;5003865;28;20213;-46
2023/05/26 05:26:21;;;;;;;1.95;1.70;;;21.20;76.50;;;;;;5008391;28;20200;-48
2023/05/26 05:28:48;;;;;;;1.38;1.00;;;21.10;76.40;;;;;;5008693;28;20194;-47
2023/05/26 05:31:16;;;;;;;1.60;1.20;;;21.10;76.40;;;;;;5005422;28;20247;-47
2023/05/26 05:33:43;;;;;;;2.55;1.60;;;21.10;76.40;;;;;;5004942;28;20201;-49
2023/05/26 05:36:10;;;;;;;1.63;1.42;;;21.10;76.30;;;;;;5004659;28;20281;-48
2023/05/26 05:38:37;;;;;;;1.77;1.65;;;21.20;76.40;;;;;;5007146;28;20201;-50
2023/05/26 05:41:03;;;;;;;1.50;1.30;;;21.20;76.40;;;;;;5005531;28;20200;-49
2023/05/26 05:43:30;;;;;;;1.45;1.23;;;21.20;76.40;;;;;;5003767;28;20201;-49
2023/05/26 05:45:57;;;;;;;1.77;1.30;;;21.20;76.50;;;;;;5007869;28;20209;-49
2023/05/26 05:48:25;;;;;;;2.63;1.77;;;21.20;77.10;;;;;;5003055;28;20224;-49
2023/05/26 05:50:51;;;;;;;1.98;1.15;;;21.20;76.40;;;;;;5006357;28;20951;-48
2023/05/26 05:53:18;;;;;;;1.50;1.40;;;21.30;76.60;;;;;;5009207;28;20538;-50
2023/05/26 05:55:46;;;;;;;1.63;1.08;;;21.20;76.30;;;;;;5007601;28;20243;-48
2023/05/26 05:58:14;;;;;;;1.20;1.00;;;21.30;76.40;;;;;;5008897;28;20251;-50
2023/05/26 06:00:41;;;;;;;1.75;1.40;;;21.20;76.40;;;;;;5006098;28;20212;-48
2023/05/26 06:03:08;;;;;;;2.13;1.50;;;21.20;76.40;;;;;;5006077;28;20535;-50
2023/05/26 06:05:36;;;;;;;2.05;1.35;;;21.40;76.70;;;;;;4995544;28;20464;-49
2023/05/26 06:08:02;;;;;;;1.25;1.10;;;21.30;76.60;;;;;;5006206;28;20215;-50
2023/05/26 06:10:29;;;;;;;1.13;1.00;;;21.30;76.60;;;;;;5001202;28;20213;-48
2023/05/26 06:12:56;;;;;;;1.90;1.67;;;21.30;76.60;;;;;;5006658;28;20727;-50
2023/05/26 06:15:23;;;;;;;2.10;1.90;;;21.30;76.70;;;;;;5003182;28;20196;-48
2023/05/26 06:17:49;;;;;;;1.20;1.00;;;21.40;76.80;;;;;;5002947;28;20462;-49
2023/05/26 06:20:16;;;;;;;1.30;1.13;;;21.40;76.90;;;;;;5001002;28;20279;-48
2023/05/26 06:22:44;;;;;;;1.47;1.00;;;21.50;77.00;;;;;;5003089;28;20201;-48
2023/05/26 06:25:11;;;;;;;1.53;1.37;;;21.40;76.80;;;;;;5005832;28;20514;-49
2023/05/26 06:27:38;;;;;;;1.67;1.20;;;21.70;77.10;;;;;;5009490;28;20479;-52
2023/05/26 06:30:06;;;;;;;2.23;1.20;;;21.60;77.00;;;;;;5006714;28;20507;-49
2023/05/26 06:32:32;;;;;;;1.40;1.17;;;21.60;76.90;;;;;;5009787;28;20533;-49
2023/05/26 06:34:59;;;;;;;2.30;1.73;;;21.60;76.90;;;;;;5014648;28;20514;-53
2023/05/26 06:37:26;;;;;;;1.27;1.00;;;21.60;76.80;;;;;;5009844;28;20465;-51
2023/05/26 06:39:54;;;;;;;1.43;1.20;;;21.60;76.80;;;;;;5014532;28;20517;-49
2023/05/26 06:42:20;;;;;;;1.63;1.37;;;21.60;76.70;;;;;;5013651;28;20462;-49
2023/05/26 06:44:47;;;;;;;1.73;1.63;;;21.70;76.80;;;;;;5014463;28;20464;-48
2023/05/26 06:47:14;;;;;;;1.70;1.00;;;21.70;76.80;;;;;;5009762;28;20475;-48
2023/05/26 06:49:40;;;;;;;1.80;1.03;;;21.70;77.60;;;;;;5012575;28;20468;-49
2023/05/26 06:52:07;;;;;;;3.00;1.20;;;21.60;76.60;;;;;;5012910;28;20773;-49
2023/05/26 06:54:34;;;;;;;2.10;1.20;;;21.80;76.80;;;;;;5005334;28;20469;-50
2023/05/26 06:57:02;;;;;;;1.90;1.40;;;21.70;76.70;;;;;;5005816;28;20534;-48
2023/05/26 06:59:29;;;;;;;2.40;1.20;;;21.70;76.60;;;;;;5009125;28;20460;-51
2023/05/26 07:01:56;;;;;;;1.60;1.13;;;21.70;76.70;;;;;;5008154;28;20483;-48
2023/05/26 07:04:23;;;;;;;1.30;1.20;;;21.70;76.60;;;;;;5008244;28;20521;-48
2023/05/26 07:06:49;;;;;;;2.50;0.97;;;21.70;76.60;;;;;;5011987;28;20460;-48
2023/05/26 07:09:16;;;;;;;1.93;1.47;;;21.80;76.60;;;;;;5011239;28;20459;-48
2023/05/26 07:11:43;;;;;;;2.10;1.20;;;21.80;76.70;;;;;;5013055;28;20882;-49
2023/05/26 07:14:11;;;;;;;1.47;1.20;;;21.70;76.50;;;;;;5009772;28;20462;-49
2023/05/26 07:16:37;;;;;;;1.47;1.00;;;21.70;76.50;;;;;;5009779;28;20734;-47
2023/05/26 07:19:04;;;;;;;5.43;1.50;;;21.70;76.70;;;;;;5009187;28;20982;-50
2023/05/26 07:21:31;;;;;;;3.27;1.93;;;21.80;77.20;;;;;;5009338;28;20463;-48
2023/05/26 07:23:58;;;;;;;3.20;1.73;;;21.80;77.20;;;;;;5014560;28;20793;-47
2023/05/26 07:26:24;;;;;;;2.50;1.43;;;21.70;77.30;;;;;;5012435;28;20971;-47
2023/05/26 07:28:51;;;;;;;4.93;1.60;;;21.70;77.70;;;;;;5007726;28;20514;-48
2023/05/26 07:31:20;;;;;;;4.03;1.50;;;21.80;77.70;;;;;;5010380;28;20509;-47
2023/05/26 07:33:48;;;;;;;3.00;1.33;;;21.70;77.70;;;;;;5013890;28;20566;-47
2023/05/26 07:36:14;;;;;;;4.17;2.70;;;21.70;77.90;;;;;;5011134;28;20551;-47
2023/05/26 07:38:41;;;;;;;4.40;1.43;;;21.80;78.10;;;;;;5007552;28;20531;-46
2023/05/26 07:41:08;;;;;;;2.07;1.70;;;21.70;77.90;;;;;;4999138;28;20494;-54
2023/05/26 07:43:35;;;;;;;4.30;2.13;;;21.80;78.10;;;;;;5009340;28;20456;-56
2023/05/26 07:46:01;;;;;;;3.33;1.63;;;21.80;78.30;;;;;;5004464;28;20545;-48
2023/05/26 07:48:30;;;;;;;2.10;1.73;;;21.80;79.00;;;;;;5009585;28;20479;-51
2023/05/26 07:50:57;;;;;;;3.33;1.40;;;21.80;78.50;;;;;;5002081;28;20947;-51
2023/05/26 07:53:24;;;;;;;2.30;1.50;;;22.00;78.70;;;;;;5010660;28;20464;-47
2023/05/26 07:55:50;;;;;;;4.63;1.33;;;21.80;78.50;;;;;;5006183;28;21042;-46
2023/05/26 07:58:17;;;;;;;3.90;2.13;;;21.80;78.60;;;;;;5009602;28;20521;-47
2023/05/26 08:00:44;;;;;;;4.20;1.53;;;21.90;78.60;;;;;;5004599;28;20468;-50
2023/05/26 08:03:11;;;;;;;3.00;1.50;;;21.90;78.50;;;;;;5008943;28;20533;-47
2023/05/26 08:05:39;;;;;;;1.97;1.40;;;22.00;78.60;;;;;;5010796;28;20471;-47
2023/05/26 08:08:06;;;;;;;3.73;1.50;;;22.00;78.60;;;;;;5006104;28;20507;-48
2023/05/26 08:10:32;;;;;;;4.37;1.93;;;22.00;78.50;;;;;;5007224;28;20490;-48
2023/05/26 08:12:59;;;;;;;2.47;1.60;;;22.10;78.70;;;;;;5003398;28;20877;-48
2023/05/26 08:15:26;;;;;;;3.10;1.87;;;22.20;78.70;;;;;;5009392;28;20459;-50
2023/05/26 08:17:53;;;;;;;7.33;1.30;;;22.20;79.20;;;;;;5004954;28;20459;-47
2023/05/26 08:20:20;;;;;;;3.50;2.00;;;22.20;79.60;;;;;;5005209;28;20476;-47
2023/05/26 08:22:48;;;;;;;1.83;1.20;;;22.20;79.70;;;;;;5007859;28;20727;-49
2023/05/26 08:25:15;;;;;;;2.53;1.80;;;22.30;80.50;;;;;;5008333;28;20488;-55
2023/05/26 08:27:42;;;;;;;2.70;1.80;;;22.30;90.60;;;;;;5006754;28;20541;-56
2023/05/26 08:30:09;;;;;;;4.00;1.73;;;22.50;81.80;;;;;;5002858;28;20464;-51
2023/05/26 08:32:36;;;;;;;3.53;1.47;;;22.40;86.50;;;;;;4994703;28;20462;-48
2023/05/26 08:35:04;;;;;;;3.57;1.50;;;22.40;88.50;;;;;;5000744;28;20456;-53
2023/05/26 08:37:30;;;;;;;2.47;1.50;;;22.40;83.00;;;;;;5008540;28;20895;-49
2023/05/26 08:39:59;;;;;;;8.33;2.60;;;22.50;81.20;;;;;;5008178;28;21037;-48
2023/05/26 08:42:29;;;;;;;4.77;2.33;;;22.50;78.70;;;;;;5005609;28;20918;-59
2023/05/26 08:44:57;;;;;;;5.67;2.47;;;22.40;77.20;;;;;;5006646;28;20491;-52
2023/05/26 08:47:24;;;;;;;3.67;1.73;;;22.50;77.50;;;;;;5006071;28;20464;-52
2023/05/26 08:49:55;;;;;;;4.40;1.67;;;22.40;77.50;;;;;;5005506;28;20474;-54
2023/05/26 08:52:23;;;;;;;4.47;2.00;;;22.60;77.80;;;;;;5010435;28;20463;-54
2023/05/26 08:54:51;;;;;;;5.07;2.77;;;22.50;77.60;;;;;;5009803;28;20455;-50
2023/05/26 08:57:20;;;;;;;2.97;2.13;;;22.60;77.50;;;;;;5006537;28;20700;-48
2023/05/26 08:59:48;;;;;;;3.00;1.80;;;22.60;77.30;;;;;;5006165;28;20510;-48
2023/05/26 09:02:15;;;;;;;3.70;2.07;;;22.50;77.20;;;;;;5000512;28;20493;-48
2023/05/26 09:04:41;;;;;;;6.00;1.60;;;22.80;77.50;;;;;;5005258;28;20955;-47
2023/05/26 09:07:08;;;;;;;3.50;2.00;;;22.80;77.30;;;;;;5014299;28;20843;-49
2023/05/26 09:09:35;;;;;;;3.67;1.77;;;22.70;77.20;;;;;;5008673;28;20988;-50
2023/05/26 09:12:03;;;;;;;4.33;2.07;;;22.70;77.00;;;;;;5002278;28;20463;-49
2023/05/26 09:14:31;;;;;;;4.33;2.10;;;22.70;77.00;;;;;;5004083;28;20468;-48
2023/05/26 09:17:00;;;;;;;4.43;1.90;;;22.80;77.00;;;;;;5001876;28;20510;-51
2023/05/26 09:19:27;;;;;;;5.00;2.20;;;22.70;76.80;;;;;;5004884;28;20525;-48
2023/05/26 09:21:54;;;;;;;3.23;1.83;;;22.70;76.70;;;;;;5004398;28;20514;-48
2023/05/26 09:24:23;;;;;;;2.73;1.50;;;22.70;76.70;;;;;;5009767;28;20467;-50
2023/05/26 09:26:50;;;;;;;3.30;1.67;;;22.70;76.50;;;;;;5005878;28;20467;-48
2023/05/26 09:29:17;;;;;;;2.77;1.60;;;22.80;76.80;;;;;;5004043;28;20484;-49
2023/05/26 09:31:47;;;;;;;3.93;1.53;;;22.80;76.50;;;;;;5001140;28;20464;-50
2023/05/26 09:34:17;;;;;;;7.30;3.00;;;22.80;76.40;;;;;;5000755;28;20465;-48
2023/05/26 09:36:44;;;;;;;2.83;1.90;;;22.80;76.30;;;;;;5010178;28;20468;-50
2023/05/26 09:39:12;;;;;;;3.30;2.23;;;22.80;76.30;;;;;;5004818;28;20472;-48
2023/05/26 09:41:40;;;;;;;3.33;2.10;;;22.80;76.10;;;;;;5005877;28;20471;-53
2023/05/26 09:44:11;;;;;;;2.03;1.50;;;22.80;76.20;;;;;;5002405;28;20456;-54
2023/05/26 09:46:39;;;;;;;4.10;1.93;;;22.90;76.40;;;;;;5005512;28;20487;-54
2023/05/26 09:49:12;;;;;;;2.73;2.20;;;22.80;75.40;;;;;;5004257;28;20895;-47
2023/05/26 09:51:39;;;;;;;4.30;2.00;;;22.90;75.10;;;;;;5009133;28;20482;-47
2023/05/26 09:54:08;;;;;;;7.40;1.93;;;22.80;75.10;;;;;;5005398;28;20468;-47
2023/05/26 09:56:37;;;;;;;3.27;2.30;;;23.00;75.30;;;;;;5001612;28;20460;-48
2023/05/26 09:59:05;;;;;;;4.27;1.83;;;22.80;74.90;;;;;;5003619;28;20797;-44
2023/05/26 10:01:35;;;;;;;4.77;2.30;;;22.80;75.10;;;;;;5001142;28;20959;-56
2023/05/26 10:04:02;;;;;;;4.10;2.70;;;22.90;74.80;;;;;;5006145;28;20887;-52
2023/05/26 10:06:32;;;;;;;5.07;1.90;;;22.90;74.90;;;;;;5012988;28;20465;-54
2023/05/26 10:09:00;;;;;;;7.13;2.07;;;22.90;75.40;;;;;;5007377;28;20599;-55
2023/05/26 10:11:29;;;;;;;2.57;1.90;;;22.90;75.30;;;;;;4999869;28;20469;-55
2023/05/26 10:13:57;;;;;;;5.33;2.20;;;23.00;75.60;;;;;;5003913;28;20559;-53
2023/05/26 10:16:24;;;;;;;5.17;2.10;;;22.90;75.40;;;;;;5004393;28;20460;-56
2023/05/26 10:18:50;;;;;;;3.77;2.80;;;22.90;75.40;;;;;;4999067;28;20460;-53
2023/05/26 10:21:22;;;;;;;5.33;2.37;;;22.80;75.00;;;;;;5002058;28;20498;-53
2023/05/26 10:23:56;;;;;;;9.00;3.00;;;22.80;74.80;;;;;;5006451;28;20471;-57
2023/05/26 10:26:28;;;;;;;3.90;1.90;;;22.90;75.00;;;;;;5002690;28;20970;-48
2023/05/26 10:29:03;;;;;;;7.07;2.60;;;22.90;75.20;;;;;;4998129;28;20545;-54
2023/05/26 10:31:30;;;;;;;3.90;2.20;;;23.00;75.00;;;;;;5001585;28;20463;-53
2023/05/26 10:33:58;;;;;;;5.30;2.20;;;23.10;74.80;;;;;;5000321;28;20464;-55
2023/05/26 10:36:24;;;;;;;6.33;2.50;;;22.90;74.70;;;;;;5001069;28;21000;-56
2023/05/26 10:38:55;;;;;;;4.20;2.00;;;22.90;75.20;;;;;;5006224;28;20546;-50
2023/05/26 10:41:30;;;;;;;6.93;2.37;;;23.00;75.30;;;;;;5000075;28;20506;-47
2023/05/26 10:43:58;;;;;;;6.40;1.90;;;23.10;75.20;;;;;;5009093;28;20542;-45
2023/05/26 10:46:37;;;;;;;10.33;2.17;;;23.10;75.50;;;;;;4999164;28;20786;-48
2023/05/26 10:49:04;;;;;;;8.90;2.17;;;23.00;75.20;;;;;;5000542;28;20470;-47
2023/05/26 10:51:31;;;;;;;4.20;1.70;;;23.10;75.30;;;;;;5004790;28;20460;-45
2023/05/26 10:54:00;;;;;;;3.83;2.03;;;23.10;75.40;;;;;;5006110;28;20470;-53
2023/05/26 10:56:36;;;;;;;2.90;1.57;;;23.20;75.70;;;;;;5006859;28;20452;-56
2023/05/26 10:59:04;;;;;;;3.00;1.70;;;23.20;75.90;;;;;;5002204;28;20468;-59
2023/05/26 11:01:33;;;;;;;5.40;1.90;;;23.20;76.00;;;;;;5003321;28;20517;-55
2023/05/26 11:04:08;;;;;;;4.10;1.73;;;23.20;76.10;;;;;;5007578;28;20537;-57
2023/05/26 11:06:43;;;;;;;4.70;2.00;;;23.20;76.00;;;;;;5006436;28;20540;-52
2023/05/26 11:09:11;;;;;;;4.40;1.70;;;23.20;76.10;;;;;;5005788;28;20569;-56
2023/05/26 11:11:49;;;;;;;5.53;1.83;;;23.20;76.20;;;;;;5003534;28;20478;-53
2023/05/26 11:14:15;;;;;;;4.00;1.83;;;23.30;76.60;;;;;;4996857;28;20531;-55
2023/05/26 11:16:45;;;;;;;7.47;2.60;;;23.20;76.40;;;;;;5004875;28;20456;-52
2023/05/26 11:19:12;;;;;;;8.87;2.50;;;23.30;76.40;;;;;;5000532;28;20470;-52
2023/05/26 11:21:40;;;;;;;9.37;3.60;;;23.40;76.10;;;;;;5004405;28;20490;-52
2023/05/26 11:24:08;;;;;;;8.50;2.97;;;23.20;74.10;;;;;;5005447;28;20480;-58
2023/05/26 11:26:36;;;;;;;8.13;3.40;;;23.20;73.50;;;;;;5011902;28;20555;-61
2023/05/26 11:29:04;;;;;;;9.63;2.80;;;23.20;72.60;;;;;;5000316;28;20479;-57
2023/05/26 11:31:31;;;;;;;6.80;2.90;;;23.20;74.10;;;;;;5002285;28;20702;-57
2023/05/26 11:33:58;;;;;;;5.20;2.73;;;23.30;74.00;;;;;;5002703;28;20451;-58
2023/05/26 11:36:25;;;;;;;7.57;2.93;;;23.30;73.90;;;;;;5000265;28;21017;-54
2023/05/26 11:38:54;;;;;;;7.23;2.90;;;23.40;74.30;;;;;;5000916;28;20455;-56
2023/05/26 11:41:25;;;;;;;8.20;3.00;;;23.30;74.10;;;;;;5011693;28;20459;-48
2023/05/26 11:43:54;;;;;;;3.67;2.00;;;23.30;74.80;;;;;;5005699;28;20556;-49
2023/05/26 11:46:22;;;;;;;5.93;2.43;;;23.30;74.60;;;;;;5000388;28;20451;-49
2023/05/26 11:48:48;;;;;;;9.87;3.30;;;23.30;74.50;;;;;;5008198;28;20487;-50
2023/05/26 11:51:17;;;;;;;7.60;3.07;;;23.30;74.50;;;;;;5002483;28;20475;-53
2023/05/26 11:53:45;;;;;;;4.20;2.70;;;23.30;74.60;;;;;;5005930;28;20471;-56
2023/05/26 11:56:14;;;;;;;7.20;2.97;;;23.30;74.90;;;;;;5009348;28;20530;-54
2023/05/26 11:58:42;;;;;;;4.37;2.87;;;23.40;75.20;;;;;;5004950;28;20519;-55
2023/05/26 12:01:11;;;;;;;8.03;2.83;;;23.30;75.10;;;;;;5006846;28;20868;-52
2023/05/26 12:03:40;;;;;;;5.77;2.93;;;23.40;74.90;;;;;;5000448;28;20515;-59
2023/05/26 12:06:11;;;;;;;5.13;2.97;;;23.40;75.50;;;;;;5008708;28;20457;-50
2023/05/26 12:08:49;;;;;;;3.57;2.50;;;23.40;75.40;;;;;;5009496;28;21005;-54
2023/05/26 12:11:17;;;;;;;7.03;2.73;;;23.40;75.10;;;;;;5011795;28;20462;-50
2023/05/26 12:13:44;;;;;;;4.63;2.27;;;23.40;75.70;;;;;;5009007;28;20526;-51
2023/05/26 12:16:28;;;;;;;6.13;3.00;;;23.40;75.40;;;;;;5001308;28;20459;-58
2023/05/26 12:18:56;;;;;;;4.87;1.97;;;23.50;75.70;;;;;;5003736;28;20460;-51
2023/05/26 12:21:25;;;;;;;5.00;2.23;;;23.50;75.70;;;;;;5007681;28;21086;-52
2023/05/26 12:23:52;;;;;;;3.80;2.50;;;23.40;75.50;;;;;;5002099;28;20484;-49
2023/05/26 12:26:22;;;;;;;4.50;1.67;;;23.50;75.90;;;;;;4998717;28;20462;-49
2023/05/26 12:29:08;;;;;;;4.27;1.97;;;23.40;76.00;;;;;;5000546;28;20483;-52
2023/05/26 12:31:41;;;;;;;6.43;1.93;;;23.50;75.50;;;;;;5008832;28;20456;-52
2023/05/26 12:34:08;;;;;;;4.67;2.43;;;23.40;76.10;;;;;;5004560;28;20456;-49
2023/05/26 12:36:35;;;;;;;5.10;2.30;;;23.50;76.30;;;;;;5007690;28;20952;-55
2023/05/26 12:39:02;;;;;;;2.67;2.47;;;23.50;76.50;;;;;;5002558;28;20478;-49
2023/05/26 12:41:28;;;;;;;4.60;2.57;;;23.50;77.70;;;;;;5006066;28;20551;-51
2023/05/26 12:43:55;;;;;;;3.60;2.30;;;23.50;76.50;;;;;;5007300;28;20523;-53
2023/05/26 12:46:22;;;;;;;3.30;2.10;;;23.60;76.90;;;;;;5003717;28;20464;-51
2023/05/26 12:48:50;;;;;;;2.20;1.60;;;23.50;76.80;;;;;;5007714;28;20483;-54
2023/05/26 12:51:17;;;;;;;6.03;2.20;;;23.60;76.90;;;;;;5005054;28;21019;-47